Language: 


Des rapports , des résumés tant et plus, au choix de chacun....


Données statistiques de la station
Quotidien Rapport Février 27, 2017 Unités:  Anglais    Métrique   les deux
« Précédent Jour
Suivant Jour »
Quotidien Hebdomadaire Mensuel Annuel Actuel
  Haut: Bas: Moyen:
Température: 51.4 °F 32 °F 47.3 °F
Pt de rosée: 48.9 °F 35.8 °F 42.4 °F
Humidité: 98 % 0 % 83 %
Vitesse du vent: 29.3 mph 3.4 mph 11.2 mph
Rafales: 32.4 mph - -
Vent:- - SSW
Pression: 29.7 in 29.2 in -
Précipitation: 0.62 in    
Historical Graphs
 
 
Données statistiques pour Février 27, 2017
Heure Température Point de rosée Pression Vent Vitesse du vent Refales Humidité Pluie (taux horaire)
00:01 51.1 °F 47.8 °F 29.7 in WSW 6.3 mph 10.3 mph 89 % 0 in
00:06 51.3 °F 47.8 °F 29.7 in SW 8.1 mph 12.5 mph 88 % 0 in
00:11 51.3 °F 47.1 °F 29.7 in SW 12.8 mph 12.8 mph 86 % 0 in
00:16 51.4 °F 46.8 °F 29.7 in SW 6.3 mph 12.8 mph 84 % 0 in
00:21 51.4 °F 46.4 °F 29.7 in WSW 10.1 mph 12.1 mph 83 % 0 in
00:26 51.4 °F 46.4 °F 29.7 in SW 8.5 mph 11 mph 83 % 0 in
00:31 51.4 °F 46 °F 29.7 in SW 8.7 mph 13.4 mph 82 % 0 in
00:36 51.4 °F 45.9 °F 29.7 in SW 5.8 mph 13.4 mph 81 % 0 in
00:41 51.4 °F 45.9 °F 29.7 in SSW 8.1 mph 10.5 mph 81 % 0 in
00:46 51.4 °F 45.3 °F 29.7 in SSW 5.8 mph 10.5 mph 80 % 0 in
00:51 51.4 °F 45.3 °F 29.7 in SSW 10.3 mph 10.3 mph 80 % 0 in
00:56 51.4 °F 45.1 °F 29.7 in West 5.6 mph 10.7 mph 79 % 0 in
01:01 51.4 °F 45.1 °F 29.7 in SW 3.8 mph 10.7 mph 79 % 0 in
01:06 51.4 °F 45.1 °F 29.7 in SW 10.5 mph 11 mph 79 % 0 in
01:11 51.4 °F 44.8 °F 29.7 in SSW 8.1 mph 11 mph 78 % 0 in
01:16 51.3 °F 44.6 °F 29.7 in SW 11 mph 12.1 mph 78 % 0 in
01:21 51.4 °F 44.1 °F 29.7 in SW 13.2 mph 15.4 mph 76 % 0 in
01:26 51.4 °F 43.7 °F 29.7 in SSW 13.2 mph 15.4 mph 75 % 0 in
01:31 51.4 °F 43.7 °F 29.7 in SSW 13 mph 15.4 mph 75 % 0 in
01:36 51.3 °F 43.5 °F 29.7 in SW 10.7 mph 13.2 mph 75 % 0 in
01:41 51.3 °F 43.5 °F 29.7 in WSW 7.4 mph 13.2 mph 75 % 0 in
01:46 51.3 °F 43.5 °F 29.7 in SSW 6.5 mph 15.2 mph 75 % 0 in
01:52 51.1 °F 43.3 °F 29.7 in WSW 10.1 mph 15.2 mph 75 % 0 in
01:57 51.1 °F 43.3 °F 29.7 in SW 6.3 mph 11 mph 75 % 0 in
02:02 32 °F 43.2 °F 29.7 in SSW 6.3 mph 10.1 mph 0 % 0 in
02:07 50.5 °F 43.2 °F 29.7 in SSW 3.6 mph 10.1 mph 76 % 0 in
02:12 50.4 °F 43.2 °F 29.7 in South 8.7 mph 9.6 mph 76 % 0 in
02:17 50.2 °F 43.2 °F 29.7 in SSW 4.5 mph 9.6 mph 77 % 0 in
02:22 50 °F 43.3 °F 29.7 in SSW 8.7 mph 8.7 mph 78 % 0 in
02:27 49.8 °F 43.5 °F 29.7 in South 8.1 mph 10.7 mph 79 % 0 in
02:32 49.8 °F 43.5 °F 29.7 in South 7.8 mph 11.2 mph 79 % 0 in
02:37 49.8 °F 43.9 °F 29.6 in SSW 4.9 mph 11.9 mph 80 % 0 in
02:42 49.6 °F 44.1 °F 29.6 in SW 3.4 mph 11.9 mph 81 % 0 in
02:47 49.8 °F 44.2 °F 29.6 in SW 7.8 mph 10.1 mph 81 % 0 in
02:52 49.8 °F 44.4 °F 29.6 in SW 8.5 mph 9.6 mph 82 % 0 in
02:57 49.8 °F 44.2 °F 29.6 in SW 8.5 mph 12.5 mph 81 % 0 in
03:02 49.8 °F 44.2 °F 29.6 in SSW 7.6 mph 12.8 mph 81 % 0 in
03:07 50 °F 43.7 °F 29.6 in SSW 8.7 mph 12.3 mph 79 % 0 in
03:12 50 °F 43.3 °F 29.6 in SSW 7.4 mph 12.5 mph 78 % 0 in
03:17 50 °F 43.2 °F 29.6 in SSW 15.2 mph 16.3 mph 77 % 0 in
03:22 50 °F 42.6 °F 29.6 in SW 8.1 mph 16.3 mph 76 % 0 in
03:27 50 °F 42.6 °F 29.6 in WSW 13.2 mph 15.4 mph 76 % 0 in
03:32 49.8 °F 42.3 °F 29.6 in SSW 12.1 mph 15.4 mph 75 % 0 in
03:37 49.8 °F 42.3 °F 29.6 in SSW 10.7 mph 15.4 mph 75 % 0 in
03:42 49.6 °F 42.1 °F 29.6 in SW 12.3 mph 14.3 mph 75 % 0 in
03:47 49.6 °F 42.4 °F 29.6 in SW 10.1 mph 14.3 mph 76 % 0 in
03:52 49.5 °F 42.3 °F 29.6 in South 10.5 mph 12.5 mph 76 % 0 in
03:57 49.5 °F 42.3 °F 29.6 in SSW 10.5 mph 12.5 mph 76 % 0 in
04:02 49.5 °F 42.3 °F 29.6 in SSW 6.3 mph 12.3 mph 76 % 0 in
04:07 49.5 °F 42.3 °F 29.6 in SSW 8.5 mph 12.3 mph 76 % 0 in
04:12 49.3 °F 42.1 °F 29.6 in SSW 8.5 mph 13.2 mph 76 % 0 in
04:17 49.3 °F 42.4 °F 29.6 in SSW 9.8 mph 13.2 mph 77 % 0 in
04:22 49.3 °F 42.4 °F 29.6 in SSW 10.7 mph 13.2 mph 77 % 0 in
04:27 49.5 °F 42.6 °F 29.6 in SSW 7.6 mph 13.2 mph 77 % 0 in
04:32 49.5 °F 43 °F 29.6 in South 5.8 mph 12.8 mph 78 % 0 in
04:37 49.6 °F 42.6 °F 29.6 in SSW 5.8 mph 12.5 mph 77 % 0 in
04:42 49.6 °F 42.6 °F 29.6 in South 6 mph 12.1 mph 77 % 0 in
04:47 49.6 °F 42.6 °F 29.6 in SSW 11 mph 14.3 mph 77 % 0 in
04:52 49.6 °F 42.6 °F 29.6 in SSW 8.1 mph 14.5 mph 77 % 0 in
04:57 49.6 °F 42.6 °F 29.6 in SSW 7.4 mph 14.5 mph 77 % 0 in
05:02 49.8 °F 43 °F 29.6 in South 9.8 mph 21 mph 77 % 0 in
05:07 49.8 °F 43 °F 29.6 in SSW 10.5 mph 21 mph 77 % 0 in
05:12 49.8 °F 43 °F 29.6 in SSW 9.8 mph 17.4 mph 77 % 0 in
05:17 49.8 °F 43 °F 29.6 in WSW 10.1 mph 13.2 mph 77 % 0 in
05:22 49.8 °F 43 °F 29.6 in SW 10.5 mph 13.2 mph 77 % 0 in
05:27 49.6 °F 42.6 °F 29.6 in SW 7.8 mph 12.8 mph 77 % 0 in
05:32 49.6 °F 42.6 °F 29.6 in SSW 10.7 mph 13 mph 77 % 0 in
05:37 49.5 °F 43 °F 29.6 in SSW 9.8 mph 13 mph 78 % 0 in
05:42 49.5 °F 42.6 °F 29.6 in SSW 7.4 mph 15.9 mph 77 % 0 in
05:47 49.5 °F 42.6 °F 29.6 in SSW 10.3 mph 15.9 mph 77 % 0 in
05:52 49.3 °F 42.6 °F 29.6 in SW 10.5 mph 17 mph 78 % 0 in
05:57 49.3 °F 42.6 °F 29.6 in SSW 8.5 mph 19.2 mph 78 % 0 in
06:02 49.6 °F 42.6 °F 29.6 in SSW 14.8 mph 19.5 mph 77 % 0 in
06:07 49.6 °F 42.6 °F 29.6 in SW 11.4 mph 19.5 mph 77 % 0 in
06:12 49.6 °F 42.6 °F 29.6 in South 7.4 mph 15.4 mph 77 % 0 in
06:17 49.6 °F 42.4 °F 29.6 in WSW 8.7 mph 17.4 mph 76 % 0 in
06:22 49.6 °F 42.4 °F 29.6 in South 9.8 mph 17.4 mph 76 % 0 in
06:27 49.8 °F 42.3 °F 29.6 in SSW 10.1 mph 17 mph 75 % 0 in
06:32 49.8 °F 42.3 °F 29.6 in SSW 12.3 mph 17 mph 75 % 0 in
06:37 49.8 °F 41.9 °F 29.6 in SSW 14.5 mph 15.2 mph 74 % 0 in
06:42 49.6 °F 41.7 °F 29.6 in SSW 20.1 mph 20.8 mph 74 % 0 in
06:47 49.6 °F 41.4 °F 29.6 in SW 7.2 mph 20.8 mph 73 % 0 in
06:52 49.6 °F 41.4 °F 29.5 in SSW 8.5 mph 19.2 mph 73 % 0 in
06:57 49.6 °F 41.4 °F 29.5 in South 8.9 mph 19.2 mph 73 % 0 in
07:02 49.6 °F 41.4 °F 29.5 in South 11.9 mph 17 mph 73 % 0 in
07:07 49.6 °F 41.4 °F 29.5 in South 6.5 mph 17.4 mph 73 % 0 in
07:12 49.6 °F 41.7 °F 29.5 in South 11 mph 17.4 mph 74 % 0 in
07:17 49.6 °F 41.4 °F 29.5 in SSW 8.7 mph 15.4 mph 73 % 0 in
07:22 49.6 °F 41.4 °F 29.5 in SW 8.7 mph 16.3 mph 73 % 0 in
07:27 49.6 °F 41.4 °F 29.5 in South 12.1 mph 17.2 mph 73 % 0 in
07:32 49.6 °F 41.4 °F 29.5 in SSW 6 mph 17.2 mph 73 % 0 in
07:37 49.6 °F 41.4 °F 29.5 in SSW 9.8 mph 17.7 mph 73 % 0 in
07:42 49.8 °F 41.5 °F 29.5 in SSW 8.7 mph 17.7 mph 73 % 0 in
07:47 49.8 °F 41.5 °F 29.5 in SSW 12.5 mph 17 mph 73 % 0 in
07:52 49.8 °F 41.5 °F 29.5 in South 8.7 mph 19.9 mph 73 % 0 in
07:57 49.8 °F 41.5 °F 29.5 in SSW 5.6 mph 19.9 mph 73 % 0 in
08:02 49.8 °F 41.2 °F 29.5 in South 11 mph 17.2 mph 72 % 0 in
08:07 49.8 °F 41.5 °F 29.5 in SSW 10.7 mph 17.2 mph 73 % 0 in
08:12 49.8 °F 41.5 °F 29.5 in South 4.7 mph 15.2 mph 73 % 0 in
08:17 49.8 °F 41.5 °F 29.5 in SSW 7.4 mph 19.9 mph 73 % 0 in
08:22 49.8 °F 41.2 °F 29.5 in SSW 9.4 mph 19.9 mph 72 % 0 in
08:27 50 °F 41.4 °F 29.5 in SSW 12.1 mph 18.1 mph 72 % 0 in
08:32 50 °F 41.4 °F 29.5 in SSW 9.8 mph 18.1 mph 72 % 0 in
08:37 50 °F 41.4 °F 29.5 in SSW 14.5 mph 18.1 mph 72 % 0 in
08:42 50 °F 41.7 °F 29.5 in SW 10.3 mph 21.3 mph 73 % 0 in
08:47 50 °F 41.7 °F 29.5 in SSW 17 mph 23.5 mph 73 % 0 in
08:52 50 °F 41.7 °F 29.5 in SSW 10.1 mph 23.5 mph 73 % 0 in
08:57 49.8 °F 41.5 °F 29.5 in SSW 17.7 mph 17.7 mph 73 % 0 in
09:02 49.8 °F 41.5 °F 29.5 in South 10.7 mph 17.7 mph 73 % 0 in
09:07 49.8 °F 41.5 °F 29.5 in SSW 13.2 mph 17.7 mph 73 % 0 in
09:12 50 °F 42.1 °F 29.5 in SSW 7.6 mph 19.7 mph 74 % 0 in
09:17 50 °F 42.1 °F 29.5 in South 11 mph 19.7 mph 74 % 0 in
09:22 50 °F 42.1 °F 29.5 in South 7.4 mph 15.4 mph 74 % 0 in
09:27 50 °F 42.1 °F 29.5 in SSW 14.1 mph 15.2 mph 74 % 0 in
09:32 50 °F 42.1 °F 29.5 in SSW 13 mph 22.4 mph 74 % 0 in
09:37 50 °F 42.1 °F 29.5 in South 6.5 mph 22.8 mph 74 % 0 in
09:42 50 °F 42.4 °F 29.5 in SW 9.8 mph 22.8 mph 75 % 0 in
09:47 50 °F 42.4 °F 29.5 in SW 12.1 mph 21.9 mph 75 % 0 in
09:52 49.8 °F 43.2 °F 29.5 in SSW 17 mph 21.9 mph 78 % 0 in
09:57 49.5 °F 43.9 °F 29.5 in SW 8.1 mph 17 mph 81 % 0 in
10:02 49.3 °F 44.1 °F 29.5 in WSW 6.5 mph 17.7 mph 82 % 0 in
10:07 49.3 °F 44.2 °F 29.4 in South 10.7 mph 17.7 mph 83 % 0 in
10:12 49.1 °F 44.4 °F 29.4 in SSW 10.3 mph 15.4 mph 84 % 0 in
10:17 49.1 °F 44.8 °F 29.4 in SSW 10.5 mph 17.2 mph 85 % 0 in
10:22 49.1 °F 45.1 °F 29.4 in SSW 8.5 mph 17.2 mph 86 % 0.01 in
10:27 48.9 °F 45.1 °F 29.4 in SW 7.8 mph 14.8 mph 87 % 0.01 in
10:32 49.1 °F 45.3 °F 29.4 in SSW 8.1 mph 13.2 mph 87 % 0.01 in
10:37 49.1 °F 45.7 °F 29.4 in South 5.8 mph 14.1 mph 88 % 0.02 in
10:42 48.9 °F 45.9 °F 29.4 in SSW 6 mph 14.5 mph 89 % 0.02 in
10:47 48.9 °F 46 °F 29.4 in SSW 12.5 mph 17.7 mph 90 % 0.02 in
10:52 48.7 °F 46.2 °F 29.4 in South 10.3 mph 17.7 mph 91 % 0.04 in
10:57 48.7 °F 46.6 °F 29.4 in SSW 11 mph 15.4 mph 92 % 0.07 in
11:02 48.6 °F 46.6 °F 29.4 in South 12.1 mph 15.4 mph 93 % 0.08 in
11:07 48.6 °F 46.9 °F 29.4 in South 8.1 mph 12.8 mph 94 % 0.08 in
11:12 48.7 °F 47.1 °F 29.4 in SSW 15.4 mph 16.6 mph 94 % 0.1 in
11:17 48.7 °F 47.5 °F 29.4 in South 13.9 mph 19.9 mph 95 % 0.1 in
11:22 48.7 °F 47.5 °F 29.4 in SSW 18.6 mph 19.9 mph 95 % 0.1 in
11:27 48.7 °F 47.5 °F 29.4 in South 13 mph 18.6 mph 95 % 0.11 in
11:32 48.7 °F 47.7 °F 29.4 in South 15.4 mph 19 mph 96 % 0.11 in
11:37 48.7 °F 47.7 °F 29.4 in South 10.5 mph 19 mph 96 % 0.12 in
11:42 48.7 °F 47.7 °F 29.4 in SSW 11 mph 17.4 mph 96 % 0.12 in
11:47 48.7 °F 47.7 °F 29.4 in SSE 12.8 mph 16.8 mph 96 % 0.12 in
11:52 48.6 °F 47.5 °F 29.4 in SSE 12.8 mph 12.8 mph 96 % 0.12 in
11:57 48.6 °F 47.5 °F 29.4 in South 12.1 mph 12.8 mph 96 % 0.1 in
12:02 48.6 °F 47.5 °F 29.4 in SSW 7.8 mph 12.8 mph 96 % 0.09 in
12:07 48.6 °F 47.5 °F 29.4 in South 8.7 mph 12.1 mph 96 % 0.09 in
12:12 48.6 °F 47.5 °F 29.4 in SSW 10.7 mph 15.2 mph 96 % 0.09 in
12:17 48.6 °F 47.5 °F 29.4 in South 11 mph 15.2 mph 96 % 0.09 in
12:22 48.6 °F 47.5 °F 29.4 in SSW 5.4 mph 13 mph 96 % 0.09 in
12:27 48.6 °F 47.5 °F 29.4 in SSW 8.5 mph 13.4 mph 96 % 0.09 in
12:32 48.6 °F 47.8 °F 29.4 in SSW 10.5 mph 13.4 mph 97 % 0.09 in
12:37 48.6 °F 47.8 °F 29.4 in South 8.7 mph 12.3 mph 97 % 0.09 in
12:42 48.6 °F 47.8 °F 29.4 in South 8.1 mph 12.8 mph 97 % 0.1 in
12:47 48.7 °F 47.8 °F 29.4 in SSW 13.2 mph 14.1 mph 97 % 0.11 in
12:48 48.7 °F 47.8 °F 29.4 in South 12.3 mph 14.1 mph 97 % 0.11 in
12:53 48.7 °F 47.8 °F 29.3 in South 9.8 mph 14.5 mph 97 % 0.13 in
12:58 48.9 °F 48 °F 29.3 in SSW 10.7 mph 14.5 mph 97 % 0.13 in
13:03 48.9 °F 48 °F 29.3 in SSW 6.5 mph 13.6 mph 97 % 0.13 in
13:08 48.9 °F 48 °F 29.3 in SSW 10.3 mph 17.4 mph 97 % 0.13 in
13:13 49.1 °F 48.4 °F 29.3 in SSW 7.4 mph 17.4 mph 97 % 0.14 in
13:18 49.1 °F 48.4 °F 29.3 in SW 10.3 mph 13.4 mph 97 % 0.15 in
13:23 49.1 °F 48.4 °F 29.3 in South 10.5 mph 14.8 mph 97 % 0.19 in
13:28 49.5 °F 48.6 °F 29.3 in SSW 9.8 mph 17.2 mph 97 % 0.19 in
13:33 49.8 °F 48.9 °F 29.3 in South 10.5 mph 22.8 mph 97 % 0.17 in
13:38 49.8 °F 48.9 °F 29.3 in South 15.7 mph 22.8 mph 97 % 0.17 in
13:43 49.5 °F 48.4 °F 29.3 in South 19.7 mph 24.2 mph 96 % 0.15 in
13:48 49.1 °F 46.9 °F 29.3 in SSW 10.1 mph 24.2 mph 92 % 0.15 in
13:53 48.9 °F 45.5 °F 29.2 in South 12.3 mph 22.1 mph 88 % 0.11 in
13:58 48.7 °F 44.8 °F 29.2 in WSW 10.5 mph 21.9 mph 86 % 0.1 in
14:03 48.6 °F 43.7 °F 29.2 in South 12.8 mph 25.9 mph 83 % 0.1 in
14:08 48.2 °F 43.3 °F 29.3 in SSW 8.1 mph 25.9 mph 83 % 0.09 in
14:13 47.8 °F 43 °F 29.3 in SSW 11.9 mph 22.6 mph 83 % 0.07 in
14:18 47.5 °F 43 °F 29.3 in SSW 19.5 mph 22.6 mph 84 % 0.04 in
14:23 47.3 °F 43.2 °F 29.3 in SSW 10.3 mph 19.5 mph 85 % 0.01 in
14:28 47.1 °F 43.2 °F 29.3 in South 9.4 mph 18.6 mph 86 % 0 in
14:33 47.1 °F 43.2 °F 29.3 in SSW 10.5 mph 24.4 mph 86 % 0 in
14:38 47.1 °F 43.5 °F 29.2 in SSW 6.5 mph 24.4 mph 87 % 0.01 in
14:43 47.3 °F 43.7 °F 29.2 in SSW 7.6 mph 16.3 mph 87 % 0.01 in
14:48 47.5 °F 43.9 °F 29.2 in SSW 10.3 mph 16.3 mph 87 % 0.01 in
14:53 47.5 °F 43.9 °F 29.2 in SSW 5.4 mph 13.2 mph 87 % 0.01 in
14:58 47.5 °F 43.5 °F 29.2 in SSW 8.1 mph 15.4 mph 86 % 0.01 in
15:03 47.7 °F 43.7 °F 29.2 in SSW 10.3 mph 15.4 mph 86 % 0.01 in
15:08 48 °F 43.9 °F 29.2 in SSW 7.8 mph 15.9 mph 85 % 0.01 in
15:13 48.6 °F 44.2 °F 29.2 in SSE 12.3 mph 15.9 mph 85 % 0.01 in
15:18 49.5 °F 45.1 °F 29.2 in SW 13.2 mph 15.2 mph 85 % 0.01 in
15:23 49.5 °F 44.8 °F 29.2 in SSW 14.1 mph 19.5 mph 84 % 0.01 in
15:28 49.5 °F 44.4 °F 29.2 in SSW 10.3 mph 19.5 mph 83 % 0.01 in
15:33 49.3 °F 44.2 °F 29.2 in SW 15.4 mph 17.4 mph 83 % 0.01 in
15:38 48.7 °F 44.4 °F 29.2 in WSW 17 mph 17.4 mph 85 % 0.01 in
15:43 48.4 °F 44.8 °F 29.2 in SW 23.3 mph 26.6 mph 87 % 0.03 in
15:48 48 °F 44.4 °F 29.2 in WSW 22.4 mph 32.4 mph 87 % 0.03 in
15:53 47.8 °F 44.4 °F 29.2 in WSW 15.4 mph 32.4 mph 88 % 0.05 in
15:58 47.5 °F 44.1 °F 29.2 in WSW 19.5 mph 22.6 mph 88 % 0.05 in
16:03 47.1 °F 43.2 °F 29.2 in SSW 10.3 mph 23.3 mph 86 % 0.05 in
16:08 46.9 °F 43.3 °F 29.2 in SW 11 mph 23.3 mph 87 % 0.05 in
16:13 46.8 °F 43.2 °F 29.2 in SSW 13 mph 17.4 mph 87 % 0.05 in
16:18 46.6 °F 43 °F 29.2 in WSW 13.9 mph 19.2 mph 87 % 0.05 in
16:23 46.6 °F 42.4 °F 29.2 in SSW 10.7 mph 19.7 mph 86 % 0.05 in
16:28 46.2 °F 42.3 °F 29.2 in SW 12.1 mph 19.7 mph 86 % 0.05 in
16:33 46.2 °F 42.3 °F 29.2 in SW 12.8 mph 17.7 mph 86 % 0.05 in
16:38 46.2 °F 42.6 °F 29.2 in SSW 10.3 mph 17.7 mph 87 % 0.02 in
16:43 46.6 °F 43.3 °F 29.2 in SW 12.8 mph 13 mph 88 % 0.03 in
16:48 46.6 °F 43.3 °F 29.2 in SSW 10.3 mph 12.8 mph 88 % 0.03 in
16:53 46.8 °F 43.5 °F 29.2 in WSW 10.5 mph 12.8 mph 88 % 0.01 in
16:58 46.9 °F 43.3 °F 29.2 in WSW 12.5 mph 13.2 mph 87 % 0.01 in
17:03 47.1 °F 43.5 °F 29.2 in WSW 10.7 mph 14.5 mph 87 % 0.01 in
17:08 47.3 °F 43.3 °F 29.2 in SSW 8.7 mph 14.5 mph 86 % 0.01 in
17:13 47.3 °F 43.3 °F 29.2 in SSW 8.7 mph 13.9 mph 86 % 0.01 in
17:18 47.3 °F 43.2 °F 29.2 in SW 10.1 mph 13.2 mph 85 % 0.01 in
17:23 47.1 °F 43 °F 29.2 in WSW 6.5 mph 17.2 mph 85 % 0.01 in
17:28 47.1 °F 43 °F 29.2 in SSW 10.3 mph 17.2 mph 85 % 0.01 in
17:33 47.3 °F 43.2 °F 29.2 in SW 9.8 mph 16.1 mph 85 % 0.01 in
17:38 47.3 °F 43.2 °F 29.2 in SSW 10.3 mph 20.1 mph 85 % 0.01 in
17:43 47.3 °F 43.2 °F 29.2 in SSW 10.1 mph 20.1 mph 85 % 0 in
17:48 46.9 °F 42.6 °F 29.2 in WSW 29.3 mph 29.3 mph 85 % 0 in
17:53 45.9 °F 41.2 °F 29.2 in WSW 19.9 mph 29.3 mph 83 % 0.01 in
17:58 45 °F 40.3 °F 29.2 in WSW 18.1 mph 29.3 mph 84 % 0.01 in
18:03 44.2 °F 40.1 °F 29.2 in WSW 15.4 mph 19.9 mph 85 % 0.01 in
18:08 44.1 °F 40.5 °F 29.2 in SW 18.1 mph 21 mph 87 % 0.01 in
18:13 43.9 °F 40.3 °F 29.2 in WSW 15.2 mph 21 mph 87 % 0.01 in
18:18 43.5 °F 39.9 °F 29.2 in WSW 13.9 mph 18.6 mph 87 % 0.01 in
18:23 43.5 °F 39.9 °F 29.2 in SW 14.5 mph 18.6 mph 87 % 0.01 in
18:28 43.3 °F 39.9 °F 29.2 in SW 17.4 mph 17.4 mph 88 % 0.01 in
18:33 43.3 °F 39.9 °F 29.2 in WSW 13 mph 17.4 mph 88 % 0.02 in
18:38 43.3 °F 39.9 °F 29.2 in SW 16.3 mph 16.3 mph 88 % 0.02 in
18:43 43.5 °F 40.1 °F 29.2 in SW 12.3 mph 17.2 mph 88 % 0.02 in
18:48 43.5 °F 40.1 °F 29.2 in WSW 11.2 mph 17.7 mph 88 % 0.02 in
18:53 43.5 °F 40.1 °F 29.2 in WSW 12.5 mph 17.7 mph 88 % 0.01 in
18:58 43.5 °F 40.1 °F 29.2 in WSW 10.7 mph 16.1 mph 88 % 0.01 in
19:03 43.5 °F 39.9 °F 29.2 in WSW 14.8 mph 18.8 mph 87 % 0.01 in
19:08 43.9 °F 40.3 °F 29.2 in WSW 17 mph 19 mph 87 % 0.01 in
19:13 43.9 °F 39.9 °F 29.2 in SW 11.2 mph 19.9 mph 86 % 0.01 in
19:18 43.5 °F 39.4 °F 29.2 in WSW 14.3 mph 23.3 mph 85 % 0.01 in
19:23 43.5 °F 37.9 °F 29.2 in WSW 18.8 mph 23.3 mph 80 % 0.01 in
19:28 43.5 °F 37.4 °F 29.2 in SW 16.6 mph 26.4 mph 79 % 0.01 in
19:33 43.5 °F 36.7 °F 29.2 in WSW 14.3 mph 26.4 mph 77 % 0 in
19:38 43.5 °F 37 °F 29.2 in WSW 22.6 mph 23.7 mph 78 % 0 in
19:43 43.3 °F 36.9 °F 29.2 in West 18.6 mph 23 mph 78 % 0 in
19:48 43.5 °F 37 °F 29.2 in WSW 18.1 mph 27.7 mph 78 % 0 in
19:53 43.5 °F 37 °F 29.2 in WSW 22.4 mph 27.7 mph 78 % 0 in
19:58 43.5 °F 37.2 °F 29.2 in WSW 14.8 mph 22.4 mph 78 % 0 in
20:03 43.5 °F 37 °F 29.2 in WSW 12.3 mph 22.4 mph 78 % 0 in
20:08 43.3 °F 36.9 °F 29.2 in SW 13.9 mph 19.9 mph 78 % 0 in
20:13 43.3 °F 36.7 °F 29.2 in WSW 12.8 mph 19.7 mph 77 % 0 in
20:18 43.3 °F 36.9 °F 29.2 in WSW 15.4 mph 17.7 mph 78 % 0 in
20:23 43.3 °F 37.2 °F 29.2 in WSW 17.2 mph 18.6 mph 79 % 0 in
20:28 43.2 °F 37 °F 29.2 in WSW 12.8 mph 19.5 mph 79 % 0 in
20:33 43.2 °F 37.4 °F 29.2 in WSW 15.2 mph 19.5 mph 80 % 0 in
20:38 43.2 °F 37.4 °F 29.2 in SW 15.2 mph 20.1 mph 80 % 0 in
20:43 43.2 °F 37.4 °F 29.2 in SW 13.9 mph 23.3 mph 80 % 0 in
20:48 43.3 °F 37.2 °F 29.2 in WSW 15.4 mph 23.3 mph 79 % 0 in
20:53 43.2 °F 37 °F 29.2 in SW 15.2 mph 17.4 mph 79 % 0 in
20:58 43 °F 36.9 °F 29.2 in WSW 17.7 mph 17.7 mph 79 % 0 in
21:03 42.8 °F 37 °F 29.2 in WSW 10.1 mph 17.7 mph 80 % 0 in
21:08 42.8 °F 37 °F 29.2 in WSW 10.1 mph 16.8 mph 80 % 0 in
21:13 43 °F 37.2 °F 29.2 in SW 13 mph 16.8 mph 80 % 0 in
21:18 43.2 °F 37.4 °F 29.2 in SSW 13 mph 15.4 mph 80 % 0 in
21:23 43.2 °F 37.4 °F 29.2 in SW 8.5 mph 14.5 mph 80 % 0 in
21:28 43 °F 37.6 °F 29.2 in SW 10.5 mph 14.5 mph 81 % 0 in
21:33 43 °F 37.6 °F 29.2 in SSW 8.1 mph 14.8 mph 81 % 0 in
21:38 43 °F 37.6 °F 29.2 in SSW 12.8 mph 14.8 mph 81 % 0 in
21:43 43 °F 37.8 °F 29.2 in SW 10.3 mph 13 mph 82 % 0 in
21:48 42.8 °F 37.6 °F 29.2 in SSW 10.7 mph 14.8 mph 82 % 0 in
21:53 42.8 °F 37.6 °F 29.2 in WSW 12.8 mph 17.2 mph 82 % 0 in
21:58 41.5 °F 36.1 °F 29.2 in West 12.8 mph 27.1 mph 81 % 0 in
22:03 40.3 °F 35.8 °F 29.2 in WSW 15.7 mph 27.1 mph 84 % 0.01 in
22:04 40.3 °F 35.8 °F 29.2 in WSW 15.7 mph 27.1 mph 84 % 0.01 in
22:09 39.7 °F 36.5 °F 29.2 in WSW 15.4 mph 23 mph 88 % 0.01 in
22:14 39.6 °F 37.2 °F 29.2 in WSW 15.4 mph 20.8 mph 91 % 0.04 in
22:19 39.4 °F 37.6 °F 29.2 in WSW 15.4 mph 15.4 mph 93 % 0.04 in
22:24 38.8 °F 37.2 °F 29.2 in WSW 15.4 mph 15.4 mph 94 % 0.04 in
22:29 38.5 °F 37 °F 29.2 in WSW 15.4 mph 15.4 mph 94 % 0.04 in
22:34 38.1 °F 36.9 °F 29.2 in WSW 15.4 mph 15.4 mph 95 % 0.04 in
22:39 38.1 °F 36.9 °F 29.2 in West 14.8 mph 14.8 mph 95 % 0.12 in
22:44 38.1 °F 37 °F 29.2 in WSW 16.1 mph 21.9 mph 96 % 0.12 in
22:49 38.1 °F 37 °F 29.2 in WSW 8.7 mph 21.9 mph 96 % 0.12 in
22:54 37.9 °F 37 °F 29.2 in SSW 10.3 mph 16.1 mph 96 % 0.12 in
22:59 37.9 °F 37 °F 29.2 in SSW 12.8 mph 14.3 mph 96 % 0.11 in
23:04 37.8 °F 36.9 °F 29.2 in WSW 10.1 mph 14.3 mph 96 % 0.11 in
23:09 37.8 °F 36.9 °F 29.2 in SW 7.6 mph 12.8 mph 96 % 0.11 in
23:14 37.8 °F 36.9 °F 29.2 in SW 5.8 mph 11 mph 96 % 0.08 in
23:19 37.8 °F 37 °F 29.2 in SW 4 mph 11 mph 97 % 0.08 in
23:24 37.8 °F 37 °F 29.2 in SSW 6.3 mph 11 mph 97 % 0.08 in
23:29 37.8 °F 37 °F 29.2 in SSW 10.3 mph 11 mph 97 % 0.08 in
23:34 37.9 °F 37.2 °F 29.2 in SSW 6.5 mph 11 mph 97 % 0.08 in
23:39 38.5 °F 37.6 °F 29.2 in SSW 14.5 mph 14.5 mph 97 % 0 in
23:44 38.5 °F 37.8 °F 29.2 in SSW 17.2 mph 17.2 mph 97 % 0 in
23:49 38.8 °F 38.5 °F 29.2 in SSW 12.5 mph 17.2 mph 98 % 0 in
23:54 39.2 °F 38.5 °F 29.2 in SSW 11.2 mph 14.5 mph 97 % 0 in
23:59 39.6 °F 38.8 °F 29.2 in WSW 8.1 mph 14.8 mph 97 % 0.01 in
Le Gheer Warneton
Courtoisie de Weather Underground - 2.25 mb

Mise a jour : 17/12/2017 22:17:13
Généré par Cumulus 1.9.4 (1099)